<?xml version="1.0" encoding="utf-8"?>
<gpx xmlns:xsi="http://www.w3.org/2001/XMLSchema-instance" xmlns:xsd="http://www.w3.org/2001/XMLSchema" version="1.1" creator="Shapelink.com" xmlns="http://www.topografix.com/GPX/1/1" xmlns:gpxtpx="http://www.garmin.com/xmlschemas/TrackPointExtension/v1">
  <metadata>
    <name>Löpning 3.29 km, 2019-09-24</name>
    <desc></desc>
    <author><name>Henrik Staffas</name></author> 
    <time>2019-09-24T07:51:50Z</time>
  </metadata>
  <trk>
    <name>Löpning 3.29 km, 2019-09-24</name>
    <trkseg>
      <trkpt lat="59.319661668962" lon="17.66803015191">
        <ele>13.4</ele>
        <time>2019-09-24T07:51:50Z</time>
      </trkpt>
      <trkpt lat="59.319682372255" lon="17.668034594317">
        <ele>14</ele>
        <time>2019-09-24T07:51:51Z</time>
      </trkpt>
      <trkpt lat="59.31984288564" lon="17.668186222888">
        <ele>14.2</ele>
        <time>2019-09-24T07:51:56Z</time>
      </trkpt>
      <trkpt lat="59.319994933306" lon="17.668445977969">
        <ele>13</ele>
        <time>2019-09-24T07:52:01Z</time>
      </trkpt>
      <trkpt lat="59.320017983531" lon="17.668495682636">
        <ele>12.8</ele>
        <time>2019-09-24T07:52:02Z</time>
      </trkpt>
      <trkpt lat="59.320124014566" lon="17.668811428809">
        <ele>12.8</ele>
        <time>2019-09-24T07:52:08Z</time>
      </trkpt>
      <trkpt lat="59.320144717859" lon="17.669207389765">
        <ele>12.4</ele>
        <time>2019-09-24T07:52:16Z</time>
      </trkpt>
      <trkpt lat="59.320101299617" lon="17.66945758948">
        <ele>11.6</ele>
        <time>2019-09-24T07:52:21Z</time>
      </trkpt>
      <trkpt lat="59.320046733448" lon="17.669813987868">
        <ele>12</ele>
        <time>2019-09-24T07:52:28Z</time>
      </trkpt>
      <trkpt lat="59.320045057068" lon="17.670219252733">
        <ele>11.6</ele>
        <time>2019-09-24T07:52:35Z</time>
      </trkpt>
      <trkpt lat="59.320026952164" lon="17.670613704947">
        <ele>11.8</ele>
        <time>2019-09-24T07:52:42Z</time>
      </trkpt>
      <trkpt lat="59.319987389596" lon="17.670958955408">
        <ele>11.4</ele>
        <time>2019-09-24T07:52:48Z</time>
      </trkpt>
      <trkpt lat="59.319968781778" lon="17.6713334587">
        <ele>10.8</ele>
        <time>2019-09-24T07:52:54Z</time>
      </trkpt>
      <trkpt lat="59.319963920276" lon="17.67172908438">
        <ele>11</ele>
        <time>2019-09-24T07:53:00Z</time>
      </trkpt>
      <trkpt lat="59.319903989691" lon="17.672103839129">
        <ele>11.4</ele>
        <time>2019-09-24T07:53:07Z</time>
      </trkpt>
      <trkpt lat="59.319819751596" lon="17.672340208709">
        <ele>12.4</ele>
        <time>2019-09-24T07:53:15Z</time>
      </trkpt>
      <trkpt lat="59.319791672231" lon="17.672376753793">
        <ele>12.6</ele>
        <time>2019-09-24T07:53:17Z</time>
      </trkpt>
      <trkpt lat="59.319764598694" lon="17.672406844814">
        <ele>12.6</ele>
        <time>2019-09-24T07:53:19Z</time>
      </trkpt>
      <trkpt lat="59.319599978178" lon="17.672623014015">
        <ele>13.8</ele>
        <time>2019-09-24T07:53:26Z</time>
      </trkpt>
      <trkpt lat="59.319579526342" lon="17.672654362321">
        <ele>13.8</ele>
        <time>2019-09-24T07:53:27Z</time>
      </trkpt>
      <trkpt lat="59.319435357662" lon="17.672923169854">
        <ele>15</ele>
        <time>2019-09-24T07:53:34Z</time>
      </trkpt>
      <trkpt lat="59.319330332455" lon="17.673240508588">
        <ele>15.8</ele>
        <time>2019-09-24T07:53:42Z</time>
      </trkpt>
      <trkpt lat="59.319273084078" lon="17.673358106645">
        <ele>15.6</ele>
        <time>2019-09-24T07:53:45Z</time>
      </trkpt>
      <trkpt lat="59.319149618691" lon="17.673676367388">
        <ele>16</ele>
        <time>2019-09-24T07:53:53Z</time>
      </trkpt>
      <trkpt lat="59.319013831911" lon="17.673950036423">
        <ele>17</ele>
        <time>2019-09-24T07:54:00Z</time>
      </trkpt>
      <trkpt lat="59.319001007604" lon="17.673995047226">
        <ele>17.4</ele>
        <time>2019-09-24T07:54:01Z</time>
      </trkpt>
      <trkpt lat="59.318949626557" lon="17.67413049873">
        <ele>18.4</ele>
        <time>2019-09-24T07:54:05Z</time>
      </trkpt>
      <trkpt lat="59.318946273797" lon="17.674168887832">
        <ele>18.8</ele>
        <time>2019-09-24T07:54:06Z</time>
      </trkpt>
      <trkpt lat="59.318942585761" lon="17.674243738199">
        <ele>19.6</ele>
        <time>2019-09-24T07:54:08Z</time>
      </trkpt>
      <trkpt lat="59.318922972115" lon="17.674361503894">
        <ele>20.8</ele>
        <time>2019-09-24T07:54:11Z</time>
      </trkpt>
      <trkpt lat="59.318917859156" lon="17.674428223818">
        <ele>22</ele>
        <time>2019-09-24T07:54:13Z</time>
      </trkpt>
      <trkpt lat="59.318914925491" lon="17.674462841065">
        <ele>22.6</ele>
        <time>2019-09-24T07:54:14Z</time>
      </trkpt>
      <trkpt lat="59.318910650722" lon="17.674503828556">
        <ele>23.2</ele>
        <time>2019-09-24T07:54:15Z</time>
      </trkpt>
      <trkpt lat="59.318906292134" lon="17.674544816047">
        <ele>23.6</ele>
        <time>2019-09-24T07:54:16Z</time>
      </trkpt>
      <trkpt lat="59.31889656913" lon="17.674629389418">
        <ele>24.6</ele>
        <time>2019-09-24T07:54:18Z</time>
      </trkpt>
      <trkpt lat="59.318871758706" lon="17.674789902803">
        <ele>25.8</ele>
        <time>2019-09-24T07:54:22Z</time>
      </trkpt>
      <trkpt lat="59.318850887775" lon="17.674893335449">
        <ele>26.8</ele>
        <time>2019-09-24T07:54:25Z</time>
      </trkpt>
      <trkpt lat="59.318831693224" lon="17.674951505835">
        <ele>27.8</ele>
        <time>2019-09-24T07:54:27Z</time>
      </trkpt>
      <trkpt lat="59.318821215849" lon="17.674976316259">
        <ele>28</ele>
        <time>2019-09-24T07:54:28Z</time>
      </trkpt>
      <trkpt lat="59.318789364629" lon="17.675084526588">
        <ele>29.2</ele>
        <time>2019-09-24T07:54:32Z</time>
      </trkpt>
      <trkpt lat="59.318737983582" lon="17.675167842674">
        <ele>30.2</ele>
        <time>2019-09-24T07:54:35Z</time>
      </trkpt>
      <trkpt lat="59.318661792111" lon="17.675303042721">
        <ele>31.4</ele>
        <time>2019-09-24T07:54:39Z</time>
      </trkpt>
      <trkpt lat="59.318617787136" lon="17.675502531941">
        <ele>32</ele>
        <time>2019-09-24T07:54:46Z</time>
      </trkpt>
      <trkpt lat="59.318564981166" lon="17.675669750846">
        <ele>32.6</ele>
        <time>2019-09-24T07:54:51Z</time>
      </trkpt>
      <trkpt lat="59.318482251813" lon="17.675921962217">
        <ele>32.4</ele>
        <time>2019-09-24T07:54:58Z</time>
      </trkpt>
      <trkpt lat="59.318485604573" lon="17.676287496876">
        <ele>33.2</ele>
        <time>2019-09-24T07:55:05Z</time>
      </trkpt>
      <trkpt lat="59.318494405568" lon="17.676381374156">
        <ele>33.6</ele>
        <time>2019-09-24T07:55:07Z</time>
      </trkpt>
      <trkpt lat="59.318503877115" lon="17.676469216468">
        <ele>33.6</ele>
        <time>2019-09-24T07:55:09Z</time>
      </trkpt>
      <trkpt lat="59.318606052476" lon="17.67680181026">
        <ele>33.4</ele>
        <time>2019-09-24T07:55:18Z</time>
      </trkpt>
      <trkpt lat="59.31862834833" lon="17.676910942598">
        <ele>33.4</ele>
        <time>2019-09-24T07:55:21Z</time>
      </trkpt>
      <trkpt lat="59.31869624172" lon="17.677222414002">
        <ele>34.6</ele>
        <time>2019-09-24T07:55:29Z</time>
      </trkpt>
      <trkpt lat="59.31872893113" lon="17.67742374724">
        <ele>35.8</ele>
        <time>2019-09-24T07:55:34Z</time>
      </trkpt>
      <trkpt lat="59.318757932504" lon="17.67773220116">
        <ele>36.6</ele>
        <time>2019-09-24T07:55:43Z</time>
      </trkpt>
      <trkpt lat="59.318794226131" lon="17.677794394858">
        <ele>36.8</ele>
        <time>2019-09-24T07:55:45Z</time>
      </trkpt>
      <trkpt lat="59.318807804809" lon="17.677828844467">
        <ele>37</ele>
        <time>2019-09-24T07:55:46Z</time>
      </trkpt>
      <trkpt lat="59.318884415375" lon="17.677972845509">
        <ele>38</ele>
        <time>2019-09-24T07:55:50Z</time>
      </trkpt>
      <trkpt lat="59.31897703537" lon="17.678138304215">
        <ele>39.2</ele>
        <time>2019-09-24T07:55:55Z</time>
      </trkpt>
      <trkpt lat="59.319027494408" lon="17.678261769602">
        <ele>40.4</ele>
        <time>2019-09-24T07:55:59Z</time>
      </trkpt>
      <trkpt lat="59.319100081662" lon="17.678440806986">
        <ele>41.4</ele>
        <time>2019-09-24T07:56:04Z</time>
      </trkpt>
      <trkpt lat="59.319193204571" lon="17.6787598221">
        <ele>42.4</ele>
        <time>2019-09-24T07:56:12Z</time>
      </trkpt>
      <trkpt lat="59.319244166523" lon="17.678900889477">
        <ele>42.4</ele>
        <time>2019-09-24T07:56:16Z</time>
      </trkpt>
      <trkpt lat="59.319263025798" lon="17.679086632381">
        <ele>42</ele>
        <time>2019-09-24T07:56:20Z</time>
      </trkpt>
      <trkpt lat="59.319251626414" lon="17.679265083032">
        <ele>41.2</ele>
        <time>2019-09-24T07:56:24Z</time>
      </trkpt>
      <trkpt lat="59.319233353872" lon="17.679624247447">
        <ele>41</ele>
        <time>2019-09-24T07:56:32Z</time>
      </trkpt>
      <trkpt lat="59.319170992536" lon="17.67999866692">
        <ele>41</ele>
        <time>2019-09-24T07:56:41Z</time>
      </trkpt>
      <trkpt lat="59.319163532645" lon="17.68004476737">
        <ele>41</ele>
        <time>2019-09-24T07:56:42Z</time>
      </trkpt>
      <trkpt lat="59.319085078061" lon="17.680376020058">
        <ele>41</ele>
        <time>2019-09-24T07:56:49Z</time>
      </trkpt>
      <trkpt lat="59.319030176616" lon="17.680654047681">
        <ele>41.2</ele>
        <time>2019-09-24T07:56:55Z</time>
      </trkpt>
      <trkpt lat="59.318865975195" lon="17.680840125861">
        <ele>41.4</ele>
        <time>2019-09-24T07:57:04Z</time>
      </trkpt>
      <trkpt lat="59.318698840109" lon="17.681033663932">
        <ele>42.4</ele>
        <time>2019-09-24T07:57:11Z</time>
      </trkpt>
      <trkpt lat="59.31860152625" lon="17.681133240904">
        <ele>42.6</ele>
        <time>2019-09-24T07:57:15Z</time>
      </trkpt>
      <trkpt lat="59.318443695073" lon="17.681345973526">
        <ele>42.8</ele>
        <time>2019-09-24T07:57:21Z</time>
      </trkpt>
      <trkpt lat="59.318340597703" lon="17.681484945428">
        <ele>43</ele>
        <time>2019-09-24T07:57:26Z</time>
      </trkpt>
      <trkpt lat="59.318296173633" lon="17.681509755852">
        <ele>43.6</ele>
        <time>2019-09-24T07:57:28Z</time>
      </trkpt>
      <trkpt lat="59.318112693842" lon="17.681562310365">
        <ele>43.6</ele>
        <time>2019-09-24T07:57:36Z</time>
      </trkpt>
      <trkpt lat="59.317937595951" lon="17.681692565091">
        <ele>43.4</ele>
        <time>2019-09-24T07:57:43Z</time>
      </trkpt>
      <trkpt lat="59.317758977662" lon="17.681792058244">
        <ele>43.8</ele>
        <time>2019-09-24T07:57:49Z</time>
      </trkpt>
      <trkpt lat="59.31750098278" lon="17.681905884446">
        <ele>44.8</ele>
        <time>2019-09-24T07:57:59Z</time>
      </trkpt>
      <trkpt lat="59.317319179369" lon="17.682016776983">
        <ele>44.6</ele>
        <time>2019-09-24T07:58:06Z</time>
      </trkpt>
      <trkpt lat="59.317262517725" lon="17.682011412567">
        <ele>44.6</ele>
        <time>2019-09-24T07:58:09Z</time>
      </trkpt>
      <trkpt lat="59.317260841345" lon="17.681930275775">
        <ele>43.8</ele>
        <time>2019-09-24T07:58:13Z</time>
      </trkpt>
      <trkpt lat="59.317309288727" lon="17.681915355993">
        <ele>43.8</ele>
        <time>2019-09-24T07:58:20Z</time>
      </trkpt>
      <trkpt lat="59.317346923458" lon="17.681615619249">
        <ele>42.8</ele>
        <time>2019-09-24T07:58:31Z</time>
      </trkpt>
      <trkpt lat="59.317337703368" lon="17.681295849764">
        <ele>41.6</ele>
        <time>2019-09-24T07:58:39Z</time>
      </trkpt>
      <trkpt lat="59.317280454991" lon="17.681097450191">
        <ele>40.6</ele>
        <time>2019-09-24T07:58:43Z</time>
      </trkpt>
      <trkpt lat="59.317132262999" lon="17.680862589353">
        <ele>39.4</ele>
        <time>2019-09-24T07:58:48Z</time>
      </trkpt>
      <trkpt lat="59.316959595859" lon="17.680712218067">
        <ele>39.8</ele>
        <time>2019-09-24T07:58:55Z</time>
      </trkpt>
      <trkpt lat="59.316765638693" lon="17.680762593286">
        <ele>40</ele>
        <time>2019-09-24T07:59:05Z</time>
      </trkpt>
      <trkpt lat="59.316659942934" lon="17.680898631523">
        <ele>40.2</ele>
        <time>2019-09-24T07:59:12Z</time>
      </trkpt>
      <trkpt lat="59.316627504981" lon="17.680936433892">
        <ele>40.2</ele>
        <time>2019-09-24T07:59:14Z</time>
      </trkpt>
      <trkpt lat="59.316473445659" lon="17.681103485159">
        <ele>39.4</ele>
        <time>2019-09-24T07:59:24Z</time>
      </trkpt>
      <trkpt lat="59.316378478732" lon="17.681296939411">
        <ele>40.4</ele>
        <time>2019-09-24T07:59:31Z</time>
      </trkpt>
      <trkpt lat="59.316241267029" lon="17.681533225172">
        <ele>40.2</ele>
        <time>2019-09-24T07:59:38Z</time>
      </trkpt>
      <trkpt lat="59.316183934833" lon="17.681648979211">
        <ele>39.6</ele>
        <time>2019-09-24T07:59:42Z</time>
      </trkpt>
      <trkpt lat="59.316085531327" lon="17.681810414605">
        <ele>39.4</ele>
        <time>2019-09-24T07:59:48Z</time>
      </trkpt>
      <trkpt lat="59.315923593019" lon="17.681956594941">
        <ele>38</ele>
        <time>2019-09-24T07:59:54Z</time>
      </trkpt>
      <trkpt lat="59.315852430688" lon="17.682328499844">
        <ele>37</ele>
        <time>2019-09-24T08:00:00Z</time>
      </trkpt>
      <trkpt lat="59.315886377383" lon="17.682681126377">
        <ele>37.4</ele>
        <time>2019-09-24T08:00:05Z</time>
      </trkpt>
      <trkpt lat="59.315978075369" lon="17.683040877525">
        <ele>39</ele>
        <time>2019-09-24T08:00:10Z</time>
      </trkpt>
      <trkpt lat="59.316011686788" lon="17.683187225499">
        <ele>39.8</ele>
        <time>2019-09-24T08:00:12Z</time>
      </trkpt>
      <trkpt lat="59.316019817231" lon="17.683235002329">
        <ele>40</ele>
        <time>2019-09-24T08:00:13Z</time>
      </trkpt>
      <trkpt lat="59.316022583258" lon="17.683599195884">
        <ele>40.6</ele>
        <time>2019-09-24T08:00:20Z</time>
      </trkpt>
      <trkpt lat="59.31603917942" lon="17.683751411188">
        <ele>41.4</ele>
        <time>2019-09-24T08:00:24Z</time>
      </trkpt>
      <trkpt lat="59.316060553265" lon="17.683903542673">
        <ele>42.6</ele>
        <time>2019-09-24T08:00:28Z</time>
      </trkpt>
      <trkpt lat="59.316061056179" lon="17.684065061886">
        <ele>44</ele>
        <time>2019-09-24T08:00:32Z</time>
      </trkpt>
      <trkpt lat="59.316055272668" lon="17.684190036015">
        <ele>44.8</ele>
        <time>2019-09-24T08:00:35Z</time>
      </trkpt>
      <trkpt lat="59.316023672905" lon="17.684266981857">
        <ele>45.2</ele>
        <time>2019-09-24T08:00:37Z</time>
      </trkpt>
      <trkpt lat="59.315877660207" lon="17.684527323671">
        <ele>45.8</ele>
        <time>2019-09-24T08:00:45Z</time>
      </trkpt>
      <trkpt lat="59.315823513133" lon="17.684596893441">
        <ele>46.2</ele>
        <time>2019-09-24T08:00:48Z</time>
      </trkpt>
      <trkpt lat="59.315668447983" lon="17.684792694625">
        <ele>46.2</ele>
        <time>2019-09-24T08:00:57Z</time>
      </trkpt>
      <trkpt lat="59.315559064188" lon="17.684935773658">
        <ele>46.6</ele>
        <time>2019-09-24T08:01:03Z</time>
      </trkpt>
      <trkpt lat="59.315409279635" lon="17.685166862641">
        <ele>46.4</ele>
        <time>2019-09-24T08:01:11Z</time>
      </trkpt>
      <trkpt lat="59.315309870301" lon="17.685506078134">
        <ele>46.6</ele>
        <time>2019-09-24T08:01:20Z</time>
      </trkpt>
      <trkpt lat="59.315301069306" lon="17.685539521915">
        <ele>46.8</ele>
        <time>2019-09-24T08:01:21Z</time>
      </trkpt>
      <trkpt lat="59.315252035191" lon="17.685625101114">
        <ele>47.2</ele>
        <time>2019-09-24T08:01:24Z</time>
      </trkpt>
      <trkpt lat="59.315218842867" lon="17.68566818408">
        <ele>47.4</ele>
        <time>2019-09-24T08:01:26Z</time>
      </trkpt>
      <trkpt lat="59.315103005009" lon="17.685838839564">
        <ele>48.4</ele>
        <time>2019-09-24T08:01:33Z</time>
      </trkpt>
      <trkpt lat="59.315034441067" lon="17.685970267756">
        <ele>48.8</ele>
        <time>2019-09-24T08:01:37Z</time>
      </trkpt>
      <trkpt lat="59.314891445853" lon="17.686263718075">
        <ele>48.6</ele>
        <time>2019-09-24T08:01:44Z</time>
      </trkpt>
      <trkpt lat="59.314776613823" lon="17.686542080974">
        <ele>48.6</ele>
        <time>2019-09-24T08:01:50Z</time>
      </trkpt>
      <trkpt lat="59.314660273051" lon="17.686816588199">
        <ele>49.2</ele>
        <time>2019-09-24T08:01:57Z</time>
      </trkpt>
      <trkpt lat="59.314615346067" lon="17.686928989478">
        <ele>49.4</ele>
        <time>2019-09-24T08:02:00Z</time>
      </trkpt>
      <trkpt lat="59.31444745661" lon="17.687143482299">
        <ele>49.2</ele>
        <time>2019-09-24T08:02:10Z</time>
      </trkpt>
      <trkpt lat="59.314407642585" lon="17.687173238044">
        <ele>49</ele>
        <time>2019-09-24T08:02:12Z</time>
      </trkpt>
      <trkpt lat="59.3142303654" lon="17.687324615158">
        <ele>48.8</ele>
        <time>2019-09-24T08:02:20Z</time>
      </trkpt>
      <trkpt lat="59.314111593877" lon="17.687430646193">
        <ele>48.2</ele>
        <time>2019-09-24T08:02:26Z</time>
      </trkpt>
      <trkpt lat="59.314091058222" lon="17.687437267894">
        <ele>48</ele>
        <time>2019-09-24T08:02:27Z</time>
      </trkpt>
      <trkpt lat="59.314027271963" lon="17.687502311438">
        <ele>47.2</ele>
        <time>2019-09-24T08:02:30Z</time>
      </trkpt>
      <trkpt lat="59.313917217616" lon="17.687558721625">
        <ele>46</ele>
        <time>2019-09-24T08:02:34Z</time>
      </trkpt>
      <trkpt lat="59.313774054764" lon="17.687612952518">
        <ele>44.8</ele>
        <time>2019-09-24T08:02:39Z</time>
      </trkpt>
      <trkpt lat="59.313581438702" lon="17.68769911845">
        <ele>44</ele>
        <time>2019-09-24T08:02:46Z</time>
      </trkpt>
      <trkpt lat="59.313530812026" lon="17.687745554176">
        <ele>43.8</ele>
        <time>2019-09-24T08:02:48Z</time>
      </trkpt>
      <trkpt lat="59.313345152941" lon="17.687847394261">
        <ele>42.6</ele>
        <time>2019-09-24T08:02:55Z</time>
      </trkpt>
      <trkpt lat="59.313233254576" lon="17.687935990944">
        <ele>41.4</ele>
        <time>2019-09-24T08:03:00Z</time>
      </trkpt>
      <trkpt lat="59.313107358438" lon="17.688003465239">
        <ele>40.8</ele>
        <time>2019-09-24T08:03:05Z</time>
      </trkpt>
      <trkpt lat="59.31307953053" lon="17.688037411934">
        <ele>40.4</ele>
        <time>2019-09-24T08:03:07Z</time>
      </trkpt>
      <trkpt lat="59.313082631833" lon="17.688026347826">
        <ele>40.2</ele>
        <time>2019-09-24T08:03:08Z</time>
      </trkpt>
      <trkpt lat="59.313114399234" lon="17.687934733659">
        <ele>39.2</ele>
        <time>2019-09-24T08:03:12Z</time>
      </trkpt>
      <trkpt lat="59.313205342849" lon="17.687675900587">
        <ele>37.8</ele>
        <time>2019-09-24T08:03:19Z</time>
      </trkpt>
      <trkpt lat="59.313372310297" lon="17.687466772182">
        <ele>37.8</ele>
        <time>2019-09-24T08:03:29Z</time>
      </trkpt>
      <trkpt lat="59.313445651922" lon="17.687406087226">
        <ele>39</ele>
        <time>2019-09-24T08:03:38Z</time>
      </trkpt>
      <trkpt lat="59.313443556447" lon="17.687378343137">
        <ele>39.4</ele>
        <time>2019-09-24T08:03:40Z</time>
      </trkpt>
      <trkpt lat="59.313585881109" lon="17.687148679077">
        <ele>39.8</ele>
        <time>2019-09-24T08:03:50Z</time>
      </trkpt>
      <trkpt lat="59.313697528017" lon="17.686873082205">
        <ele>38.8</ele>
        <time>2019-09-24T08:03:58Z</time>
      </trkpt>
      <trkpt lat="59.313782101388" lon="17.686535878368">
        <ele>38.8</ele>
        <time>2019-09-24T08:04:06Z</time>
      </trkpt>
      <trkpt lat="59.313819736119" lon="17.686398582846">
        <ele>37.8</ele>
        <time>2019-09-24T08:04:10Z</time>
      </trkpt>
      <trkpt lat="59.313880337256" lon="17.686268579577">
        <ele>36.8</ele>
        <time>2019-09-24T08:04:14Z</time>
      </trkpt>
      <trkpt lat="59.313902046377" lon="17.686238740013">
        <ele>36.6</ele>
        <time>2019-09-24T08:04:15Z</time>
      </trkpt>
      <trkpt lat="59.314041353555" lon="17.686013434541">
        <ele>37</ele>
        <time>2019-09-24T08:04:22Z</time>
      </trkpt>
      <trkpt lat="59.314163226381" lon="17.68596657972">
        <ele>37.8</ele>
        <time>2019-09-24T08:04:28Z</time>
      </trkpt>
      <trkpt lat="59.314299432256" lon="17.685642116371">
        <ele>37.8</ele>
        <time>2019-09-24T08:04:37Z</time>
      </trkpt>
      <trkpt lat="59.314380485229" lon="17.685308013837">
        <ele>37.6</ele>
        <time>2019-09-24T08:04:43Z</time>
      </trkpt>
      <trkpt lat="59.314421807996" lon="17.685046414738">
        <ele>36.8</ele>
        <time>2019-09-24T08:04:50Z</time>
      </trkpt>
      <trkpt lat="59.314426166584" lon="17.685011294577">
        <ele>36.4</ele>
        <time>2019-09-24T08:04:51Z</time>
      </trkpt>
      <trkpt lat="59.314394818278" lon="17.684675934758">
        <ele>35.6</ele>
        <time>2019-09-24T08:05:00Z</time>
      </trkpt>
      <trkpt lat="59.314498083286" lon="17.684331941582">
        <ele>35.6</ele>
        <time>2019-09-24T08:05:04Z</time>
      </trkpt>
      <trkpt lat="59.314514847086" lon="17.684260360156">
        <ele>35.4</ele>
        <time>2019-09-24T08:05:05Z</time>
      </trkpt>
      <trkpt lat="59.314563210649" lon="17.683893568212">
        <ele>35.2</ele>
        <time>2019-09-24T08:05:10Z</time>
      </trkpt>
      <trkpt lat="59.314674857557" lon="17.683598106237">
        <ele>35</ele>
        <time>2019-09-24T08:05:16Z</time>
      </trkpt>
      <trkpt lat="59.314850626" lon="17.683491237012">
        <ele>34.6</ele>
        <time>2019-09-24T08:05:21Z</time>
      </trkpt>
      <trkpt lat="59.31501574943" lon="17.683256124717">
        <ele>34.4</ele>
        <time>2019-09-24T08:05:27Z</time>
      </trkpt>
      <trkpt lat="59.315184141801" lon="17.683053198918">
        <ele>34.4</ele>
        <time>2019-09-24T08:05:34Z</time>
      </trkpt>
      <trkpt lat="59.315360999891" lon="17.682945575322">
        <ele>35.2</ele>
        <time>2019-09-24T08:05:43Z</time>
      </trkpt>
      <trkpt lat="59.315435934077" lon="17.682899810148">
        <ele>35.6</ele>
        <time>2019-09-24T08:05:47Z</time>
      </trkpt>
      <trkpt lat="59.315380026804" lon="17.682577358455">
        <ele>35.8</ele>
        <time>2019-09-24T08:05:56Z</time>
      </trkpt>
      <trkpt lat="59.315367453954" lon="17.682551961298">
        <ele>36</ele>
        <time>2019-09-24T08:05:57Z</time>
      </trkpt>
      <trkpt lat="59.315372231637" lon="17.682480379872">
        <ele>36</ele>
        <time>2019-09-24T08:05:59Z</time>
      </trkpt>
      <trkpt lat="59.315384888306" lon="17.682425059332">
        <ele>35.8</ele>
        <time>2019-09-24T08:06:01Z</time>
      </trkpt>
      <trkpt lat="59.315372566913" lon="17.682281728842">
        <ele>35.2</ele>
        <time>2019-09-24T08:06:05Z</time>
      </trkpt>
      <trkpt lat="59.315418164449" lon="17.682142337845">
        <ele>34.2</ele>
        <time>2019-09-24T08:06:09Z</time>
      </trkpt>
      <trkpt lat="59.315487231305" lon="17.681955505294">
        <ele>33.6</ele>
        <time>2019-09-24T08:06:15Z</time>
      </trkpt>
      <trkpt lat="59.315562165491" lon="17.681585695866">
        <ele>33.2</ele>
        <time>2019-09-24T08:06:23Z</time>
      </trkpt>
      <trkpt lat="59.315584712802" lon="17.681510845499">
        <ele>33</ele>
        <time>2019-09-24T08:06:25Z</time>
      </trkpt>
      <trkpt lat="59.31567289039" lon="17.681179089897">
        <ele>32.4</ele>
        <time>2019-09-24T08:06:32Z</time>
      </trkpt>
      <trkpt lat="59.315823848409" lon="17.680898128609">
        <ele>32.8</ele>
        <time>2019-09-24T08:06:42Z</time>
      </trkpt>
      <trkpt lat="59.315986792545" lon="17.680647090704">
        <ele>33.6</ele>
        <time>2019-09-24T08:06:50Z</time>
      </trkpt>
      <trkpt lat="59.316121489678" lon="17.680404853794">
        <ele>34</ele>
        <time>2019-09-24T08:06:56Z</time>
      </trkpt>
      <trkpt lat="59.316169015051" lon="17.680108553629">
        <ele>32.8</ele>
        <time>2019-09-24T08:07:03Z</time>
      </trkpt>
      <trkpt lat="59.316187706688" lon="17.679699349271">
        <ele>32.2</ele>
        <time>2019-09-24T08:07:10Z</time>
      </trkpt>
      <trkpt lat="59.316252414956" lon="17.679319313925">
        <ele>32.2</ele>
        <time>2019-09-24T08:07:17Z</time>
      </trkpt>
      <trkpt lat="59.316353919765" lon="17.679179922928">
        <ele>33.8</ele>
        <time>2019-09-24T08:07:23Z</time>
      </trkpt>
      <trkpt lat="59.316454586384" lon="17.678876665786">
        <ele>33.6</ele>
        <time>2019-09-24T08:07:30Z</time>
      </trkpt>
      <trkpt lat="59.316526503086" lon="17.678539042854">
        <ele>33.4</ele>
        <time>2019-09-24T08:07:36Z</time>
      </trkpt>
      <trkpt lat="59.316573022631" lon="17.678335278865">
        <ele>33.2</ele>
        <time>2019-09-24T08:07:41Z</time>
      </trkpt>
      <trkpt lat="59.316546200551" lon="17.678203683035">
        <ele>32.8</ele>
        <time>2019-09-24T08:07:45Z</time>
      </trkpt>
      <trkpt lat="59.316598503607" lon="17.677834292702">
        <ele>31.8</ele>
        <time>2019-09-24T08:07:53Z</time>
      </trkpt>
      <trkpt lat="59.316620967099" lon="17.677750306064">
        <ele>31.6</ele>
        <time>2019-09-24T08:07:55Z</time>
      </trkpt>
      <trkpt lat="59.316696236561" lon="17.677429111656">
        <ele>30.8</ele>
        <time>2019-09-24T08:08:02Z</time>
      </trkpt>
      <trkpt lat="59.316706294841" lon="17.677334312367">
        <ele>30.6</ele>
        <time>2019-09-24T08:08:04Z</time>
      </trkpt>
      <trkpt lat="59.316744181029" lon="17.676962575102">
        <ele>30</ele>
        <time>2019-09-24T08:08:11Z</time>
      </trkpt>
      <trkpt lat="59.316791790221" lon="17.676762834425">
        <ele>29.4</ele>
        <time>2019-09-24T08:08:16Z</time>
      </trkpt>
      <trkpt lat="59.316878626705" lon="17.676449016089">
        <ele>29.2</ele>
        <time>2019-09-24T08:08:23Z</time>
      </trkpt>
      <trkpt lat="59.316920033291" lon="17.67608851057">
        <ele>28.8</ele>
        <time>2019-09-24T08:08:31Z</time>
      </trkpt>
      <trkpt lat="59.316969235044" lon="17.675739236797">
        <ele>28.8</ele>
        <time>2019-09-24T08:08:38Z</time>
      </trkpt>
      <trkpt lat="59.316969821777" lon="17.675326176765">
        <ele>28.8</ele>
        <time>2019-09-24T08:08:44Z</time>
      </trkpt>
      <trkpt lat="59.316930343028" lon="17.674900040969">
        <ele>30</ele>
        <time>2019-09-24T08:08:49Z</time>
      </trkpt>
      <trkpt lat="59.317039643004" lon="17.674589994488">
        <ele>30.6</ele>
        <time>2019-09-24T08:08:56Z</time>
      </trkpt>
      <trkpt lat="59.317117175579" lon="17.674259328533">
        <ele>30.6</ele>
        <time>2019-09-24T08:09:02Z</time>
      </trkpt>
      <trkpt lat="59.317254806377" lon="17.673987084421">
        <ele>30.4</ele>
        <time>2019-09-24T08:09:09Z</time>
      </trkpt>
      <trkpt lat="59.317340720852" lon="17.673626075988">
        <ele>30.2</ele>
        <time>2019-09-24T08:09:16Z</time>
      </trkpt>
      <trkpt lat="59.317430658639" lon="17.673268336496">
        <ele>29.8</ele>
        <time>2019-09-24T08:09:24Z</time>
      </trkpt>
      <trkpt lat="59.317455552882" lon="17.673169849171">
        <ele>29.4</ele>
        <time>2019-09-24T08:09:26Z</time>
      </trkpt>
      <trkpt lat="59.317485476265" lon="17.672820575398">
        <ele>29.2</ele>
        <time>2019-09-24T08:09:31Z</time>
      </trkpt>
      <trkpt lat="59.317566696876" lon="17.672497872248">
        <ele>29</ele>
        <time>2019-09-24T08:09:37Z</time>
      </trkpt>
      <trkpt lat="59.317606762358" lon="17.672267369998">
        <ele>28</ele>
        <time>2019-09-24T08:09:42Z</time>
      </trkpt>
      <trkpt lat="59.317682534734" lon="17.67194701378">
        <ele>27</ele>
        <time>2019-09-24T08:09:48Z</time>
      </trkpt>
      <trkpt lat="59.317684797847" lon="17.671694550952">
        <ele>26.8</ele>
        <time>2019-09-24T08:09:51Z</time>
      </trkpt>
      <trkpt lat="59.317708686262" lon="17.671296662159">
        <ele>26.2</ele>
        <time>2019-09-24T08:09:57Z</time>
      </trkpt>
      <trkpt lat="59.317754870531" lon="17.671016790518">
        <ele>25.6</ele>
        <time>2019-09-24T08:10:02Z</time>
      </trkpt>
      <trkpt lat="59.317806419216" lon="17.670658045198">
        <ele>24.4</ele>
        <time>2019-09-24T08:10:08Z</time>
      </trkpt>
      <trkpt lat="59.317902894885" lon="17.670360906843">
        <ele>23.6</ele>
        <time>2019-09-24T08:10:14Z</time>
      </trkpt>
      <trkpt lat="59.317928208223" lon="17.670322936836">
        <ele>23.2</ele>
        <time>2019-09-24T08:10:15Z</time>
      </trkpt>
      <trkpt lat="59.318091739092" lon="17.670201986019">
        <ele>22.2</ele>
        <time>2019-09-24T08:10:20Z</time>
      </trkpt>
      <trkpt lat="59.318190477874" lon="17.669854723902">
        <ele>21.4</ele>
        <time>2019-09-24T08:10:25Z</time>
      </trkpt>
      <trkpt lat="59.318230291899" lon="17.669648445343">
        <ele>21.2</ele>
        <time>2019-09-24T08:10:28Z</time>
      </trkpt>
      <trkpt lat="59.31832157079" lon="17.66942741464">
        <ele>20</ele>
        <time>2019-09-24T08:10:33Z</time>
      </trkpt>
      <trkpt lat="59.318440174675" lon="17.669162295143">
        <ele>19.2</ele>
        <time>2019-09-24T08:10:37Z</time>
      </trkpt>
      <trkpt lat="59.318465068918" lon="17.669107980431">
        <ele>18.8</ele>
        <time>2019-09-24T08:10:38Z</time>
      </trkpt>
      <trkpt lat="59.318573614523" lon="17.668861468752">
        <ele>17.8</ele>
        <time>2019-09-24T08:10:43Z</time>
      </trkpt>
      <trkpt lat="59.318670425468" lon="17.668545387303">
        <ele>16.8</ele>
        <time>2019-09-24T08:10:49Z</time>
      </trkpt>
      <trkpt lat="59.318682327766" lon="17.668496604645">
        <ele>16.6</ele>
        <time>2019-09-24T08:10:50Z</time>
      </trkpt>
      <trkpt lat="59.318768158422" lon="17.668215559538">
        <ele>16</ele>
        <time>2019-09-24T08:10:56Z</time>
      </trkpt>
      <trkpt lat="59.318944597417" lon="17.668246824025">
        <ele>15.8</ele>
        <time>2019-09-24T08:11:01Z</time>
      </trkpt>
      <trkpt lat="59.319124975905" lon="17.668342126228">
        <ele>15.8</ele>
        <time>2019-09-24T08:11:06Z</time>
      </trkpt>
      <trkpt lat="59.319196557331" lon="17.668363248616">
        <ele>15.6</ele>
        <time>2019-09-24T08:11:08Z</time>
      </trkpt>
      <trkpt lat="59.319379785665" lon="17.668401050985">
        <ele>16.2</ele>
        <time>2019-09-24T08:11:13Z</time>
      </trkpt>
      <trkpt lat="59.319442817553" lon="17.668395016017">
        <ele>16.6</ele>
        <time>2019-09-24T08:11:15Z</time>
      </trkpt>
      <trkpt lat="59.319570390071" lon="17.668339946934">
        <ele>16.4</ele>
        <time>2019-09-24T08:11:19Z</time>
      </trkpt>
    </trkseg>
  </trk>
</gpx>